createdAt,value
2018-08-03T00:02:13.396Z,3.63
2018-08-03T00:07:15.614Z,2.97
2018-08-03T00:12:17.778Z,2.90
2018-08-03T00:17:19.907Z,3.67
2018-08-03T00:22:22.148Z,3.37
2018-08-03T00:27:24.301Z,3.73
2018-08-03T00:32:26.449Z,3.40
2018-08-03T00:37:28.557Z,2.70
2018-08-03T00:42:30.683Z,3.50
2018-08-03T00:47:32.858Z,4.00
2018-08-03T00:52:35.004Z,3.03
2018-08-03T00:57:37.146Z,3.70
2018-08-03T01:02:39.343Z,3.37
2018-08-03T01:07:41.558Z,3.90
2018-08-03T01:12:46.027Z,3.90
2018-08-03T01:17:48.147Z,3.60
2018-08-03T01:22:50.296Z,3.10
2018-08-03T01:27:52.474Z,3.90
2018-08-03T01:32:54.643Z,3.67
2018-08-03T01:37:56.831Z,3.80
2018-08-03T01:42:58.933Z,3.83
2018-08-03T01:48:01.107Z,3.93
2018-08-03T01:53:03.257Z,3.37
2018-08-03T01:58:05.640Z,4.00
2018-08-03T02:03:07.776Z,3.27
2018-08-03T02:08:09.968Z,3.23
2018-08-03T02:13:12.108Z,3.57
2018-08-03T02:18:14.239Z,4.17
2018-08-03T02:23:16.384Z,3.83
2018-08-03T02:28:18.502Z,4.00
2018-08-03T02:33:20.659Z,3.80
2018-08-03T02:38:22.770Z,4.07
2018-08-03T02:43:24.932Z,4.07
2018-08-03T02:48:27.080Z,3.80
2018-08-03T02:53:29.242Z,3.47
2018-08-03T02:58:31.375Z,4.00
2018-08-03T03:03:33.527Z,3.90
2018-08-03T03:08:35.721Z,4.20
2018-08-03T03:13:37.859Z,4.00
2018-08-03T03:18:40.007Z,3.73
2018-08-03T03:23:42.170Z,3.70
2018-08-03T03:28:44.312Z,4.43
2018-08-03T03:33:46.435Z,4.57
2018-08-03T03:38:48.603Z,3.97
2018-08-03T03:43:50.785Z,4.40
2018-08-03T03:48:52.932Z,4.30
2018-08-03T03:53:55.065Z,4.10
2018-08-03T03:58:57.190Z,4.47
2018-08-03T04:03:59.331Z,4.30
2018-08-03T04:09:01.495Z,4.37
2018-08-03T04:14:03.658Z,3.33
2018-08-03T04:19:05.981Z,4.00
2018-08-03T04:24:08.174Z,4.20
2018-08-03T04:29:10.346Z,3.80
2018-08-03T04:34:12.503Z,3.73
2018-08-03T04:39:14.679Z,3.30
2018-08-03T04:44:16.858Z,3.70
2018-08-03T04:49:18.995Z,4.07
2018-08-03T04:54:21.161Z,4.70
2018-08-03T04:59:23.339Z,4.43
2018-08-03T05:04:25.454Z,3.90
2018-08-03T05:09:27.621Z,3.87
2018-08-03T05:14:29.792Z,4.87
2018-08-03T05:19:31.965Z,3.70
2018-08-03T05:24:34.138Z,4.70
2018-08-03T05:29:36.282Z,4.03
2018-08-03T05:34:38.401Z,4.30
2018-08-03T05:39:40.519Z,4.30
2018-08-03T05:44:42.697Z,4.90
2018-08-03T05:49:44.855Z,4.80
2018-08-03T05:54:46.989Z,5.00
2018-08-03T05:59:49.162Z,5.30
2018-08-03T06:04:51.457Z,4.73
2018-08-03T06:09:53.716Z,4.70
2018-08-03T06:14:55.904Z,5.00
2018-08-03T06:19:58.067Z,4.83
2018-08-03T06:25:00.220Z,4.67
2018-08-03T06:30:02.400Z,4.40
2018-08-03T06:35:04.595Z,4.37
2018-08-03T06:40:06.764Z,5.07
2018-08-03T06:45:08.923Z,4.30
2018-08-03T06:50:11.119Z,3.30
2018-08-03T06:55:13.312Z,4.13
2018-08-03T07:00:16.480Z,3.90
2018-08-03T07:05:18.654Z,3.50
2018-08-03T07:10:20.867Z,4.00
2018-08-03T07:15:23.021Z,4.60
2018-08-03T07:20:25.264Z,4.80
2018-08-03T07:25:27.371Z,4.17
2018-08-03T07:30:29.514Z,2.93
2018-08-03T07:35:31.668Z,3.03
2018-08-03T07:40:33.831Z,4.03
2018-08-03T07:45:35.970Z,3.57
2018-08-03T07:50:38.114Z,3.03
2018-08-03T07:55:40.284Z,2.90
2018-08-03T08:00:42.432Z,2.77
2018-08-03T08:05:44.590Z,2.70
2018-08-03T08:10:46.820Z,3.83
2018-08-03T08:15:48.991Z,3.40
2018-08-03T08:20:51.969Z,3.40
2018-08-03T08:25:54.117Z,3.57
2018-08-03T08:30:56.292Z,3.90
2018-08-03T08:35:58.464Z,3.87
2018-08-03T08:41:00.646Z,3.93
2018-08-03T08:46:02.852Z,3.07
2018-08-03T08:51:05.060Z,4.20
2018-08-03T08:56:07.247Z,3.43
2018-08-03T09:01:09.480Z,3.60
2018-08-03T09:06:11.612Z,3.90
2018-08-03T09:11:13.831Z,4.20
2018-08-03T09:16:16.030Z,3.60
2018-08-03T09:21:18.222Z,5.20
2018-08-03T09:26:20.423Z,4.60
2018-08-03T09:31:22.614Z,4.17
2018-08-03T09:36:24.819Z,4.40
2018-08-03T09:41:26.954Z,4.17
2018-08-03T09:46:29.234Z,3.87
2018-08-03T09:51:31.455Z,3.97
2018-08-03T09:56:33.648Z,4.00
2018-08-03T10:01:35.897Z,5.00
2018-08-03T10:06:38.055Z,4.80
2018-08-03T10:11:40.300Z,5.50
2018-08-03T10:16:42.486Z,6.00
2018-08-03T10:21:44.639Z,5.80
2018-08-03T10:26:46.834Z,6.10
2018-08-03T10:31:49.073Z,7.07
2018-08-03T10:36:51.267Z,5.93
2018-08-03T10:41:53.432Z,6.10
2018-08-03T10:46:55.649Z,6.07
2018-08-03T10:51:57.848Z,6.27
2018-08-03T10:57:00.057Z,6.63
2018-08-03T11:02:02.296Z,6.10
2018-08-03T11:07:04.582Z,5.67
2018-08-03T11:12:06.818Z,5.33
2018-08-03T11:17:08.995Z,6.27
2018-08-03T11:22:11.868Z,6.80
2018-08-03T11:27:14.024Z,6.23
2018-08-03T11:32:16.211Z,6.57
2018-08-03T11:37:18.404Z,6.07
2018-08-03T11:42:20.583Z,6.40
2018-08-03T11:47:22.764Z,6.20
2018-08-03T11:52:25.018Z,5.63
2018-08-03T11:57:27.229Z,7.33
2018-08-03T12:02:29.404Z,5.30
2018-08-03T12:07:31.617Z,3.70
2018-08-03T12:12:33.868Z,4.50
2018-08-03T12:17:35.996Z,3.93
2018-08-03T12:22:38.159Z,4.53
2018-08-03T12:27:40.334Z,5.43
2018-08-03T12:32:42.500Z,4.37
2018-08-03T12:37:44.733Z,4.70
2018-08-03T12:42:46.921Z,4.40
2018-08-03T12:47:49.133Z,4.50
2018-08-03T12:52:51.738Z,4.27
2018-08-03T12:57:53.876Z,5.20
2018-08-03T13:02:56.020Z,4.10
2018-08-03T13:07:58.372Z,4.40
2018-08-03T13:13:00.463Z,3.00
2018-08-03T13:18:02.745Z,2.83
2018-08-03T13:23:04.948Z,2.80
2018-08-03T13:28:07.130Z,3.03
2018-08-03T13:33:09.298Z,2.73
2018-08-03T13:38:11.457Z,2.50
2018-08-03T13:43:13.627Z,2.90
2018-08-03T13:48:15.792Z,3.47
2018-08-03T13:53:17.988Z,2.47
2018-08-03T13:58:20.188Z,2.60
2018-08-03T14:03:22.411Z,2.80
2018-08-03T14:08:24.599Z,3.47
2018-08-03T14:13:26.828Z,3.07
2018-08-03T14:18:29.041Z,2.57
2018-08-03T14:23:31.224Z,3.30
2018-08-03T14:28:33.407Z,2.50
2018-08-03T14:33:35.615Z,2.70
2018-08-03T14:38:37.811Z,3.40
2018-08-03T14:43:39.990Z,2.67
2018-08-03T14:48:42.180Z,3.27
2018-08-03T14:53:44.358Z,2.70
2018-08-03T14:58:46.532Z,3.30
2018-08-03T15:03:48.714Z,3.27
2018-08-03T15:08:50.880Z,3.13
2018-08-03T15:13:53.113Z,3.10
2018-08-03T15:18:55.291Z,3.43
2018-08-03T15:23:57.530Z,3.27
2018-08-03T15:28:59.732Z,3.10
2018-08-03T15:34:01.893Z,2.70
2018-08-03T15:39:06.706Z,2.80
2018-08-03T15:44:08.919Z,2.60
2018-08-03T15:49:11.130Z,3.00
2018-08-03T15:54:13.227Z,2.70
2018-08-03T15:59:15.468Z,2.97
2018-08-03T16:04:17.696Z,2.30
2018-08-03T16:09:19.936Z,3.37
2018-08-03T16:14:22.150Z,2.67
2018-08-03T16:19:24.305Z,2.70
2018-08-03T16:24:26.458Z,3.20
2018-08-03T16:29:28.595Z,3.10
2018-08-03T16:34:30.770Z,2.60
2018-08-03T16:39:32.950Z,2.80
2018-08-03T16:44:35.134Z,2.90
2018-08-03T16:49:37.336Z,2.80
2018-08-03T16:54:39.495Z,2.60
2018-08-03T16:59:41.638Z,2.30
2018-08-03T17:04:44.053Z,2.00
2018-08-03T17:09:46.196Z,2.00
2018-08-03T17:14:48.416Z,1.80
2018-08-03T17:19:50.552Z,2.20
2018-08-03T17:24:52.766Z,2.20
2018-08-03T17:29:54.983Z,2.30
2018-08-03T17:34:57.220Z,2.30
2018-08-03T17:39:59.353Z,2.30
2018-08-03T17:45:01.520Z,2.03
2018-08-03T17:50:04.361Z,1.70
2018-08-03T17:55:06.615Z,1.70
2018-08-03T18:00:08.883Z,1.50
2018-08-03T18:05:11.065Z,1.60
2018-08-03T18:10:13.294Z,2.57
2018-08-03T18:15:15.502Z,2.80
2018-08-03T18:20:17.716Z,3.40
2018-08-03T18:25:19.901Z,2.70
2018-08-03T18:30:22.120Z,3.90
2018-08-03T18:35:25.032Z,4.20
2018-08-03T18:40:27.287Z,3.17
2018-08-03T18:45:30.140Z,3.93
2018-08-03T18:50:32.317Z,3.20
2018-08-03T18:55:34.582Z,3.60
2018-08-03T19:00:36.846Z,4.30
2018-08-03T19:05:39.101Z,3.90
2018-08-03T19:10:41.293Z,3.50
2018-08-03T19:15:43.534Z,3.63
2018-08-03T19:20:45.706Z,3.73
2018-08-03T19:25:47.898Z,3.80
2018-08-03T19:30:50.125Z,3.53
2018-08-03T19:35:52.332Z,3.70
2018-08-03T19:40:54.536Z,3.63
2018-08-03T19:45:56.772Z,4.20
2018-08-03T19:50:59.027Z,4.50
2018-08-03T19:56:01.250Z,4.27
2018-08-03T20:01:03.477Z,3.93
2018-08-03T20:06:05.676Z,4.00
2018-08-03T20:11:07.920Z,4.00
2018-08-03T20:16:10.164Z,4.97
2018-08-03T20:21:12.397Z,3.53
2018-08-03T20:26:14.601Z,3.87
2018-08-03T20:31:17.085Z,4.10
2018-08-03T20:36:19.269Z,3.97
2018-08-03T20:41:22.284Z,3.53
2018-08-03T20:46:24.477Z,3.03
2018-08-03T20:51:26.708Z,3.00
2018-08-03T20:56:28.944Z,2.30
2018-08-03T21:01:31.153Z,2.73
2018-08-03T21:06:33.303Z,2.27
2018-08-03T21:11:35.729Z,2.70
2018-08-03T21:16:38.527Z,1.93
2018-08-03T21:21:40.657Z,1.73
2018-08-03T21:26:42.826Z,2.23
2018-08-03T21:31:44.991Z,2.20
2018-08-03T21:36:47.175Z,1.93
2018-08-03T21:41:49.341Z,2.03
2018-08-03T21:46:51.487Z,2.33
2018-08-03T21:51:53.722Z,1.90
2018-08-03T21:56:55.874Z,1.80
2018-08-03T22:01:58.138Z,2.67
2018-08-03T22:07:00.271Z,1.47
2018-08-03T22:12:02.533Z,1.50
2018-08-03T22:17:04.731Z,1.30
2018-08-03T22:22:06.928Z,1.70
2018-08-03T22:27:09.117Z,1.57
2018-08-03T22:32:11.271Z,1.33
2018-08-03T22:37:13.423Z,1.57
2018-08-03T22:42:15.573Z,1.53
2018-08-03T22:47:17.731Z,1.50
2018-08-03T22:52:19.883Z,1.10
2018-08-03T22:57:22.020Z,1.10
2018-08-03T23:02:24.175Z,1.30
2018-08-03T23:07:26.362Z,1.43
2018-08-03T23:12:28.545Z,1.70
2018-08-03T23:17:30.734Z,1.77
2018-08-03T23:22:32.896Z,1.47
2018-08-03T23:27:35.079Z,1.40
2018-08-03T23:32:37.397Z,1.27
2018-08-03T23:37:39.557Z,1.27
2018-08-03T23:42:41.705Z,1.20
2018-08-03T23:47:43.883Z,1.97
2018-08-03T23:52:47.639Z,1.63
2018-08-03T23:57:49.817Z,1.57
